Mekhanik Pogodin — UBFH6 — position and weather

sailwx.info

Track history (hours):
 
Tides and Currents Weather Stations Pressure Air Temp Water Temp Dewpoint Dewpoint Depression Visibility Wind Speed Wind Dir Waves Ship Positions

Mekhanik Pogodin

Last reported at 2017-Jan-13 12:08 UTC. Time now 2017-Jan-16 21:55 UTC.
Position N 45°34' E 036°50'.

Length 141 m; draft 3 m.

Type: Ship (hazmat cat A). MMSI: 273354720.

Date/timePositionNaut miles runAvg speedWind from/ knotsBaromVisibWave heightAir tempDewpointWater temp
2017-Jan-13 12:08N 45°34' E 036°50'5 9.0
2017-Jan-13 11:33N 45°29' E 036°46'9 8.9
2017-Jan-13 10:34N 45°21' E 036°40'9 8.6
2017-Jan-13 09:33N 45°17' E 036°29'6 5.8
2017-Jan-13 08:32N 45°12' E 036°31'0 0.0
2017-Jan-13 07:22N 45°12' E 036°31'  
2017-Jan-05 12:33N 39°01' E 026°01'8 7.7
2017-Jan-05 11:33N 38°58' E 026°11'9 8.1
2017-Jan-05 10:29N 38°55' E 026°21'  
Track history (hours):
 
Tides and Currents Weather Stations Pressure Air Temp Water Temp Dewpoint Dewpoint Depression Visibility Wind Speed Wind Dir Waves Ship Positions

Mekhanik Pogodin

Last reported at 2017-Jan-13 12:08 UTC. Time now 2017-Jan-16 21:55 UTC.
Position N 45°34' E 036°50'.

Length 141 m; draft 3 m.

Type: Ship (hazmat cat A). MMSI: 273354720.

Date/timePositionNaut miles runAvg speedWind from/ knotsBaromVisibWave heightAir tempDewpointWater temp
2017-Jan-13 12:08N 45°34' E 036°50'5 9.0
2017-Jan-13 11:33N 45°29' E 036°46'9 8.9
2017-Jan-13 10:34N 45°21' E 036°40'9 8.6
2017-Jan-13 09:33N 45°17' E 036°29'6 5.8
2017-Jan-13 08:32N 45°12' E 036°31'0 0.0
2017-Jan-13 07:22N 45°12' E 036°31'  
2017-Jan-05 12:33N 39°01' E 026°01'8 7.7
2017-Jan-05 11:33N 38°58' E 026°11'9 8.1
2017-Jan-05 10:29N 38°55' E 026°21'  

Dump ship's entire track history